Time;durP1;ratioP1;P1;durP2;ratioP2;P2;SDS_P1;SDS_P2;PMS_P1;PMS_P2;Temp;Humidity;BMP_temperature;BMP_pressure;BME280_temperature;BME280_humidity;BME280_pressure;Samples;Min_cycle;Max_cycle;Signal;HPM_P1;HPM_P2
2021/03/19 00:02:57;;;;;;;0.73;0.22;;;4.20;99.90;;;;;;10433409;28;20488;-52
2021/03/19 00:08:18;;;;;;;1.42;0.55;;;4.10;99.90;;;;;;10442572;28;20403;-52
2021/03/19 00:13:39;;;;;;;0.77;0.52;;;4.00;99.90;;;;;;10442880;28;20421;-52
2021/03/19 00:19:01;;;;;;;0.82;0.20;;;4.00;99.90;;;;;;10442070;28;20049;-52
2021/03/19 00:24:21;;;;;;;1.67;0.50;;;3.90;99.90;;;;;;10439757;28;20033;-52
2021/03/19 00:29:42;;;;;;;1.15;0.32;;;3.90;99.90;;;;;;10437016;28;20124;-52
2021/03/19 00:35:04;;;;;;;1.95;0.50;;;4.00;99.90;;;;;;10416954;28;20230;-53
2021/03/19 00:40:25;;;;;;;1.13;0.50;;;3.90;99.90;;;;;;10441370;28;20516;-52
2021/03/19 00:45:46;;;;;;;1.02;0.60;;;3.80;99.90;;;;;;10441893;28;20567;-52
2021/03/19 00:51:07;;;;;;;1.40;0.47;;;3.80;99.90;;;;;;10416265;28;20441;-52
2021/03/19 00:56:28;;;;;;;2.60;1.30;;;3.70;99.90;;;;;;10442676;28;20080;-52
2021/03/19 01:01:49;;;;;;;2.35;1.00;;;3.60;99.90;;;;;;10426283;28;20358;-52
2021/03/19 01:07:11;;;;;;;1.65;0.63;;;3.50;99.90;;;;;;10437676;28;20045;-52
2021/03/19 01:12:32;;;;;;;1.08;0.30;;;3.50;99.90;;;;;;10449476;28;20388;-52
2021/03/19 01:17:53;;;;;;;1.67;0.70;;;3.40;99.90;;;;;;10443027;28;20203;-52
2021/03/19 01:23:15;;;;;;;1.95;0.95;;;3.40;99.90;;;;;;10448059;28;20029;-52
2021/03/19 01:28:36;;;;;;;2.15;0.80;;;3.40;99.90;;;;;;10451147;28;20071;-52
2021/03/19 01:33:58;;;;;;;1.70;0.90;;;3.30;99.90;;;;;;10445389;28;20043;-53
2021/03/19 01:39:19;;;;;;;1.90;0.80;;;3.30;99.90;;;;;;10446799;28;20128;-52
2021/03/19 01:45:04;;;;;;;0.60;0.30;;;3.30;99.90;;;;;;10443588;28;20143;-52
2021/03/19 01:51:02;;;;;;;2.28;0.68;;;3.40;99.90;;;;;;10431075;28;20037;-52
2021/03/19 01:57:00;;;;;;;2.55;1.10;;;3.30;99.90;;;;;;10417172;28;20036;-52
2021/03/19 02:02:59;;;;;;;1.20;0.55;;;3.20;99.90;;;;;;10426859;28;20398;-52
2021/03/19 02:08:57;;;;;;;3.35;0.70;;;3.20;99.90;;;;;;10429478;28;20049;-52
2021/03/19 02:14:55;;;;;;;1.38;0.40;;;3.20;99.90;;;;;;10430352;28;20067;-52
2021/03/19 02:20:54;;;;;;;1.83;0.45;;;3.20;99.90;;;;;;10445853;28;20065;-52
2021/03/19 02:26:52;;;;;;;1.67;0.50;;;3.20;99.90;;;;;;10447590;28;20029;-52
2021/03/19 02:32:20;;;;;;;1.52;0.57;;;3.10;99.90;;;;;;10447043;28;20041;-52
2021/03/19 02:37:41;;;;;;;2.53;0.38;;;3.10;99.90;;;;;;10445655;28;20526;-52
2021/03/19 02:43:02;;;;;;;2.60;0.65;;;3.10;99.90;;;;;;10442094;28;20029;-53
2021/03/19 02:48:23;;;;;;;2.60;0.50;;;3.10;99.90;;;;;;10416793;28;20047;-52
2021/03/19 02:53:44;;;;;;;1.52;0.70;;;2.90;99.90;;;;;;10430124;28;20041;-52
2021/03/19 02:59:05;;;;;;;3.03;1.17;;;2.90;99.90;;;;;;10436245;28;20037;-52
2021/03/19 03:04:26;;;;;;;2.15;0.50;;;2.90;99.90;;;;;;10435720;28;20095;-52
2021/03/19 03:09:47;;;;;;;1.92;0.80;;;2.80;99.90;;;;;;10443902;28;20076;-52
2021/03/19 03:15:12;;;;;;;1.42;0.40;;;2.70;99.90;;;;;;10444483;28;20362;-52
2021/03/19 03:20:40;;;;;;;1.35;0.40;;;2.80;99.90;;;;;;10442329;28;20123;-52
2021/03/19 03:26:01;;;;;;;2.67;0.40;;;2.70;99.90;;;;;;10427769;28;20370;-52
2021/03/19 03:31:22;;;;;;;1.67;0.75;;;2.60;99.90;;;;;;10403150;28;20489;-52
2021/03/19 03:36:44;;;;;;;1.85;0.50;;;2.60;99.90;;;;;;10443588;28;20051;-52
2021/03/19 03:42:05;;;;;;;1.33;0.57;;;2.60;99.90;;;;;;10444719;28;20524;-52
2021/03/19 03:47:26;;;;;;;2.35;0.82;;;2.60;99.90;;;;;;10445124;28;20098;-52
2021/03/19 03:52:48;;;;;;;1.73;0.85;;;2.50;99.90;;;;;;10421365;28;20045;-53
2021/03/19 03:58:13;;;;;;;1.50;0.82;;;2.40;99.90;;;;;;10436974;28;20066;-52
2021/03/19 04:03:34;;;;;;;1.48;0.70;;;2.40;99.90;;;;;;10438326;28;20096;-52
2021/03/19 04:08:55;;;;;;;2.25;0.65;;;2.30;99.90;;;;;;10443831;28;20044;-52
2021/03/19 04:14:16;;;;;;;1.45;0.93;;;2.30;99.90;;;;;;10431617;28;20065;-52
2021/03/19 04:19:37;;;;;;;1.20;0.40;;;2.30;99.90;;;;;;10436847;28;20118;-52
2021/03/19 04:24:59;;;;;;;1.67;1.15;;;2.30;99.90;;;;;;10428389;28;20091;-52
2021/03/19 04:30:26;;;;;;;0.98;0.52;;;2.30;99.90;;;;;;10411363;28;20076;-52
2021/03/19 04:35:54;;;;;;;1.45;0.50;;;2.30;99.90;;;;;;10440754;28;20048;-53
2021/03/19 04:41:15;;;;;;;4.03;0.77;;;2.30;99.90;;;;;;10449216;28;20071;-52
2021/03/19 04:46:36;;;;;;;6.95;2.63;;;2.20;99.90;;;;;;10408913;28;20046;-52
2021/03/19 04:51:58;;;;;;;1.48;0.57;;;2.20;99.90;;;;;;10409723;28;20041;-53
2021/03/19 04:57:19;;;;;;;7.45;1.10;;;2.10;99.90;;;;;;10430820;28;20070;-52
2021/03/19 05:02:46;;;;;;;1.10;0.30;;;2.10;99.90;;;;;;10437561;28;20445;-52
2021/03/19 05:08:07;;;;;;;1.38;0.50;;;2.10;99.90;;;;;;10447537;28;20052;-52
2021/03/19 05:13:28;;;;;;;0.95;0.50;;;2.10;99.90;;;;;;10438594;28;20032;-52
2021/03/19 05:18:49;;;;;;;3.00;0.77;;;2.10;99.90;;;;;;10447523;28;20498;-52
2021/03/19 05:24:11;;;;;;;1.40;0.52;;;2.00;99.90;;;;;;10446656;28;20033;-52
2021/03/19 05:29:31;;;;;;;2.67;0.40;;;2.00;99.90;;;;;;10446833;28;20071;-52
2021/03/19 05:34:53;;;;;;;2.03;0.73;;;2.00;99.90;;;;;;10449053;28;20048;-52
2021/03/19 05:40:23;;;;;;;1.15;0.30;;;1.90;99.90;;;;;;10435289;28;20033;-53
2021/03/19 05:46:15;;;;;;;2.50;1.02;;;1.90;99.90;;;;;;10447582;28;20217;-52
2021/03/19 05:51:36;;;;;;;1.15;0.43;;;1.90;99.90;;;;;;10449197;28;20528;-52
2021/03/19 05:57:26;;;;;;;1.88;0.60;;;2.00;99.90;;;;;;10448560;28;20315;-52
2021/03/19 06:02:48;;;;;;;7.93;1.58;;;2.10;99.90;;;;;;10431347;28;20049;-52
2021/03/19 06:08:28;;;;;;;2.25;0.70;;;2.10;99.90;;;;;;10418625;28;20037;-52
2021/03/19 06:14:03;;;;;;;1.40;0.43;;;2.20;99.90;;;;;;10415594;28;20116;-52
2021/03/19 06:19:37;;;;;;;2.45;1.15;;;2.20;99.90;;;;;;10418878;28;20043;-52
2021/03/19 06:25:10;;;;;;;2.10;0.88;;;2.40;99.90;;;;;;10440402;28;20079;-52
2021/03/19 06:30:38;;;;;;;4.75;0.70;;;2.40;99.90;;;;;;10445890;28;20072;-52
2021/03/19 06:36:19;;;;;;;1.30;0.40;;;2.60;99.90;;;;;;10436504;28;20030;-52
2021/03/19 06:41:40;;;;;;;2.25;0.70;;;2.60;99.90;;;;;;10445636;28;20075;-52
2021/03/19 06:47:05;;;;;;;3.25;1.00;;;2.70;99.90;;;;;;10446561;28;20037;-52
2021/03/19 06:52:29;;;;;;;6.30;0.70;;;2.80;99.90;;;;;;10421377;28;20037;-52
2021/03/19 06:57:50;;;;;;;0.88;0.60;;;2.80;99.90;;;;;;10444247;28;20047;-52
2021/03/19 07:03:41;;;;;;;2.17;0.57;;;2.90;99.90;;;;;;10441818;28;20500;-52
2021/03/19 07:09:28;;;;;;;0.80;0.50;;;3.10;99.90;;;;;;10416327;28;20064;-52
2021/03/19 07:15:18;;;;;;;6.65;1.25;;;3.20;99.90;;;;;;10433786;28;20037;-52
2021/03/19 07:20:48;;;;;;;1.95;0.70;;;3.30;99.90;;;;;;10435834;28;20044;-52
2021/03/19 07:26:13;;;;;;;4.32;0.88;;;3.30;99.90;;;;;;10439772;28;20036;-52
2021/03/19 07:31:58;;;;;;;2.83;1.05;;;3.50;99.90;;;;;;10440319;28;20072;-52
2021/03/19 07:37:43;;;;;;;2.28;1.48;;;3.60;99.90;;;;;;10439909;28;20495;-52
2021/03/19 07:43:16;;;;;;;8.93;1.08;;;3.90;99.90;;;;;;10433216;28;20029;-52
2021/03/19 07:49:06;;;;;;;2.80;1.17;;;4.20;99.90;;;;;;10413501;28;20078;-52
2021/03/19 07:54:51;;;;;;;4.63;1.02;;;4.40;99.90;;;;;;10444437;28;20037;-52
2021/03/19 08:00:18;;;;;;;1.60;0.70;;;4.60;99.90;;;;;;10443260;28;20558;-52
2021/03/19 08:05:47;;;;;;;2.28;0.70;;;4.80;99.90;;;;;;10423152;28;20091;-52
2021/03/19 08:11:14;;;;;;;12.80;1.20;;;5.00;99.90;;;;;;10438277;28;20045;-52
2021/03/19 08:16:43;;;;;;;5.90;2.08;;;5.30;99.90;;;;;;10441570;28;20443;-52
2021/03/19 08:22:27;;;;;;;8.37;0.70;;;5.40;99.90;;;;;;10443135;28;20037;-52
2021/03/19 08:28:01;;;;;;;3.83;0.50;;;5.70;99.90;;;;;;10441246;28;20083;-52
2021/03/19 08:33:43;;;;;;;1.92;0.90;;;5.90;99.90;;;;;;10433517;28;20060;-52
2021/03/19 08:39:35;;;;;;;1.50;0.50;;;6.10;99.90;;;;;;10424572;28;20519;-51
2021/03/19 08:44:56;;;;;;;2.55;1.02;;;6.40;99.90;;;;;;10427651;28;20029;-52
2021/03/19 08:50:39;;;;;;;2.78;0.63;;;6.50;99.90;;;;;;10441419;28;20037;-51
2021/03/19 08:56:03;;;;;;;3.33;1.05;;;6.80;99.90;;;;;;10442070;28;20049;-51
2021/03/19 09:01:52;;;;;;;1.20;0.50;;;7.00;99.90;;;;;;10441163;28;20098;-51
2021/03/19 09:07:35;;;;;;;1.23;0.57;;;7.30;99.90;;;;;;10443548;28;20490;-51
2021/03/19 09:12:58;;;;;;;1.98;0.75;;;7.60;99.90;;;;;;10439573;28;20076;-51
2021/03/19 09:18:45;;;;;;;2.03;0.80;;;7.80;99.90;;;;;;10439512;28;20068;-51
2021/03/19 09:24:17;;;;;;;1.95;0.80;;;8.30;99.90;;;;;;10427956;28;20029;-52
2021/03/19 09:29:40;;;;;;;1.17;0.57;;;8.60;99.90;;;;;;10432637;28;20033;-52
2021/03/19 09:35:06;;;;;;;1.80;0.55;;;8.70;99.90;;;;;;10446332;28;20033;-51
2021/03/19 09:40:48;;;;;;;2.20;0.82;;;9.00;99.90;;;;;;10446729;28;20119;-51
2021/03/19 09:46:23;;;;;;;3.90;0.82;;;9.10;99.90;;;;;;10442848;28;20412;-51
2021/03/19 09:51:45;;;;;;;1.00;0.40;;;8.80;99.90;;;;;;10436977;28;20025;-51
2021/03/19 09:57:21;;;;;;;1.58;0.63;;;8.60;99.90;;;;;;10419422;28;20109;-51
2021/03/19 10:02:43;;;;;;;1.55;0.80;;;8.40;99.90;;;;;;10447884;28;20548;-51
2021/03/19 10:08:04;;;;;;;1.67;0.32;;;8.20;99.90;;;;;;10447925;28;20079;-51
2021/03/19 10:13:25;;;;;;;1.67;0.55;;;8.30;99.90;;;;;;10446381;28;20132;-52
2021/03/19 10:18:46;;;;;;;1.20;0.50;;;8.40;99.90;;;;;;10432315;28;20033;-52
2021/03/19 10:24:08;;;;;;;1.23;0.70;;;8.70;99.90;;;;;;10419921;28;20438;-52
2021/03/19 10:29:35;;;;;;;2.30;0.70;;;8.80;99.90;;;;;;10445936;28;20500;-52
2021/03/19 10:35:05;;;;;;;2.65;0.70;;;8.90;99.90;;;;;;10428178;28;20026;-52
2021/03/19 10:40:36;;;;;;;2.35;0.47;;;9.10;99.90;;;;;;10439579;28;20029;-51
2021/03/19 10:46:14;;;;;;;1.23;0.45;;;9.50;99.90;;;;;;10447273;28;20021;-52
2021/03/19 10:51:38;;;;;;;2.28;0.65;;;9.30;99.90;;;;;;10442804;28;20427;-52
2021/03/19 10:57:03;;;;;;;2.97;0.40;;;9.60;99.90;;;;;;10432959;28;20041;-52
2021/03/19 11:02:27;;;;;;;1.13;0.60;;;10.10;99.90;;;;;;10436712;28;20068;-52
2021/03/19 11:07:48;;;;;;;1.13;0.40;;;11.20;99.90;;;;;;10433192;28;20061;-52
2021/03/19 11:13:10;;;;;;;1.38;0.50;;;11.60;96.80;;;;;;10413909;28;20523;-52
2021/03/19 11:18:39;;;;;;;0.73;0.20;;;11.90;97.00;;;;;;10423526;28;20494;-52
2021/03/19 11:24:14;;;;;;;0.83;0.27;;;13.00;90.00;;;;;;10444137;28;20040;-52
2021/03/19 11:29:37;;;;;;;1.23;0.40;;;13.50;86.90;;;;;;10417884;28;20038;-52
2021/03/19 11:35:11;;;;;;;0.98;0.30;;;14.10;94.00;;;;;;10422073;28;20021;-52
2021/03/19 11:40:38;;;;;;;0.55;0.10;;;14.60;84.70;;;;;;10433642;28;20033;-52
2021/03/19 11:46:00;;;;;;;1.50;0.45;;;14.60;72.50;;;;;;10428028;28;20025;-52
2021/03/19 11:51:29;;;;;;;4.18;1.13;;;14.40;79.00;;;;;;10401297;28;20057;-52
2021/03/19 11:56:50;;;;;;;6.78;0.80;;;14.00;93.30;;;;;;10439582;28;20041;-52
2021/03/19 12:02:40;;;;;;;2.03;0.52;;;13.70;99.00;;;;;;10442392;28;20053;-52
2021/03/19 12:08:01;;;;;;;;;;;14.90;91.40;;;;;;10434078;28;20048;-52
2021/03/19 12:13:22;;;;;;;2.60;0.52;;;15.50;92.60;;;;;;10427545;28;20372;-52
2021/03/19 12:18:43;;;;;;;1.67;0.50;;;15.00;95.30;;;;;;10429867;28;20037;-52
2021/03/19 12:24:05;;;;;;;3.25;0.75;;;14.00;99.20;;;;;;10417393;28;20041;-52
2021/03/19 12:29:26;;;;;;;0.98;0.40;;;14.90;95.20;;;;;;10418418;28;20041;-52
2021/03/19 12:34:47;;;;;;;1.75;0.73;;;15.20;93.70;;;;;;10424295;28;20041;-53
2021/03/19 12:40:10;;;;;;;2.22;0.65;;;15.70;89.90;;;;;;10415156;28;20075;-52
2021/03/19 12:45:33;;;;;;;0.98;0.32;;;13.70;95.00;;;;;;10427884;28;20068;-53
2021/03/19 12:50:54;;;;;;;1.85;0.40;;;14.70;96.20;;;;;;10386722;28;20139;-53
2021/03/19 12:56:15;;;;;;;2.97;1.08;;;14.80;90.40;;;;;;10369299;28;21477;-52
2021/03/19 13:01:36;;;;;;;1.17;0.50;;;14.80;95.50;;;;;;10390557;28;20049;-53
2021/03/19 13:06:57;;;;;;;0.60;0.20;;;15.90;91.20;;;;;;10385126;28;20037;-53
2021/03/19 13:12:18;;;;;;;2.35;0.50;;;17.20;76.40;;;;;;10403609;28;20041;-53
2021/03/19 13:17:39;;;;;;;0.85;0.30;;;17.80;58.50;;;;;;10397704;28;20068;-53
2021/03/19 13:23:01;;;;;;;0.65;0.25;;;17.20;68.10;;;;;;10403370;28;20057;-53
2021/03/19 13:28:22;;;;;;;1.52;0.50;;;17.20;63.90;;;;;;10399711;28;20048;-53
2021/03/19 13:33:43;;;;;;;1.05;0.40;;;16.70;71.60;;;;;;10405119;28;20048;-53
2021/03/19 13:39:05;;;;;;;1.38;0.55;;;16.10;75.50;;;;;;10410647;28;20041;-52
2021/03/19 13:44:26;;;;;;;1.38;0.30;;;16.00;74.10;;;;;;10402665;28;20075;-53
2021/03/19 13:49:47;;;;;;;2.13;0.40;;;16.20;76.20;;;;;;10388604;28;20361;-52
2021/03/19 13:55:09;;;;;;;1.80;0.47;;;16.40;75.30;;;;;;10395521;28;20472;-53
2021/03/19 14:00:36;;;;;;;0.60;0.20;;;16.80;70.40;;;;;;10401341;28;20455;-53
2021/03/19 14:05:57;;;;;;;1.10;0.40;;;16.80;71.70;;;;;;10383519;28;20056;-52
2021/03/19 14:11:19;;;;;;;1.77;0.60;;;15.70;76.20;;;;;;10378352;28;20076;-52
2021/03/19 14:16:42;;;;;;;0.80;0.32;;;14.30;86.50;;;;;;10375008;28;20041;-52
2021/03/19 14:22:02;;;;;;;2.20;0.68;;;13.70;93.30;;;;;;10388029;28;20052;-52
2021/03/19 14:27:23;;;;;;;0.68;0.20;;;15.10;89.10;;;;;;10383788;28;20034;-52
2021/03/19 14:32:44;;;;;;;1.17;0.30;;;15.10;84.90;;;;;;10386242;28;20041;-52
2021/03/19 14:38:05;;;;;;;0.93;0.30;;;13.20;91.50;;;;;;10358677;28;20102;-52
2021/03/19 14:43:27;;;;;;;0.75;0.20;;;12.90;96.70;;;;;;10368407;28;20032;-52
2021/03/19 14:48:48;;;;;;;1.00;0.22;;;12.20;97.50;;;;;;10373118;28;20198;-51
2021/03/19 14:54:09;;;;;;;1.13;0.47;;;11.80;98.60;;;;;;10369392;28;20124;-51
2021/03/19 14:59:30;;;;;;;0.28;0.10;;;11.40;99.90;;;;;;10371035;28;20042;-51
2021/03/19 15:04:51;;;;;;;0.90;0.25;;;11.20;99.90;;;;;;10372816;28;20083;-51
2021/03/19 15:10:16;;;;;;;1.60;1.05;;;11.30;99.90;;;;;;10370177;28;20394;-51
2021/03/19 15:15:38;;;;;;;0.70;0.30;;;11.10;99.90;;;;;;10367795;28;20036;-51
2021/03/19 15:21:04;;;;;;;1.92;0.55;;;10.90;99.90;;;;;;10375149;28;20120;-52
2021/03/19 15:26:26;;;;;;;1.42;0.35;;;10.50;99.90;;;;;;10380082;28;20045;-52
2021/03/19 15:31:47;;;;;;;2.70;0.40;;;10.00;99.90;;;;;;10377194;28;20389;-51
2021/03/19 15:37:08;;;;;;;1.20;0.65;;;9.70;99.90;;;;;;10359508;28;20046;-51
2021/03/19 15:42:29;;;;;;;1.42;0.22;;;9.80;99.90;;;;;;10376171;28;21480;-51
2021/03/19 15:47:50;;;;;;;0.93;0.40;;;9.60;99.90;;;;;;10362652;28;20049;-51
2021/03/19 15:53:13;;;;;;;1.52;0.47;;;9.60;99.90;;;;;;10370732;28;20595;-51
2021/03/19 15:58:34;;;;;;;1.25;0.45;;;9.40;99.90;;;;;;10361792;28;20049;-53
2021/03/19 16:03:55;;;;;;;1.27;0.20;;;9.30;99.90;;;;;;10368836;28;20360;-50
2021/03/19 16:09:17;;;;;;;0.68;0.28;;;9.20;99.90;;;;;;10366795;28;20084;-51
2021/03/19 16:14:38;;;;;;;0.35;0.20;;;8.90;99.90;;;;;;10372082;28;20058;-50
2021/03/19 16:20:00;;;;;;;0.28;0.08;;;8.80;99.90;;;;;;10371647;28;20401;-50
2021/03/19 16:25:23;;;;;;;4.07;0.65;;;8.70;99.90;;;;;;10372392;28;20036;-51
2021/03/19 16:30:49;;;;;;;7.45;0.65;;;8.60;99.90;;;;;;10367338;28;20178;-50
2021/03/19 16:36:10;;;;;;;0.13;0.05;;;8.50;99.90;;;;;;10371990;28;20033;-50
2021/03/19 16:41:32;;;;;;;1.10;0.28;;;8.50;99.90;;;;;;10370718;28;20736;-50
2021/03/19 16:46:53;;;;;;;0.65;0.17;;;8.40;99.90;;;;;;10375501;28;20156;-50
2021/03/19 16:52:14;;;;;;;0.77;0.22;;;8.20;99.90;;;;;;10376468;28;20037;-50
2021/03/19 16:57:35;;;;;;;0.22;0.00;;;8.10;99.90;;;;;;10373189;28;20072;-50
2021/03/19 17:02:56;;;;;;;0.08;0.00;;;8.10;99.90;;;;;;10372118;28;20136;-50
2021/03/19 17:08:17;;;;;;;0.20;0.10;;;8.10;99.90;;;;;;10365378;28;20049;-50
2021/03/19 17:13:39;;;;;;;0.15;0.10;;;7.90;99.90;;;;;;10369922;28;20052;-50
2021/03/19 17:19:00;;;;;;;0.40;0.03;;;7.80;99.90;;;;;;10373509;28;20045;-50
2021/03/19 17:24:21;;;;;;;0.20;0.08;;;7.80;99.90;;;;;;10368170;28;20092;-50
2021/03/19 17:29:42;;;;;;;0.03;0.00;;;7.70;99.90;;;;;;10379445;28;20045;-52
2021/03/19 17:35:03;;;;;;;0.80;0.20;;;7.70;99.90;;;;;;10367220;28;20057;-50
2021/03/19 17:40:24;;;;;;;0.00;0.00;;;7.60;99.90;;;;;;10365659;28;20041;-50
2021/03/19 17:45:49;;;;;;;0.20;0.00;;;7.40;99.90;;;;;;10380485;28;20072;-50
2021/03/19 17:51:12;;;;;;;0.40;0.10;;;7.20;99.90;;;;;;10379127;28;20037;-50
2021/03/19 17:56:33;;;;;;;1.20;0.30;;;7.10;99.90;;;;;;10368018;28;20523;-50
2021/03/19 18:01:54;;;;;;;0.40;0.10;;;7.00;99.90;;;;;;10372591;28;20087;-50
2021/03/19 18:07:16;;;;;;;0.55;0.10;;;6.90;99.90;;;;;;10372639;28;20401;-50
2021/03/19 18:12:37;;;;;;;2.05;0.50;;;6.80;99.90;;;;;;10373468;28;20254;-50
2021/03/19 18:17:58;;;;;;;9.15;1.95;;;6.70;99.90;;;;;;10360939;28;20049;-50
2021/03/19 18:23:31;;;;;;;5.85;1.73;;;6.70;99.90;;;;;;10384549;28;20037;-50
2021/03/19 18:28:55;;;;;;;1.77;0.73;;;6.60;99.90;;;;;;10372961;28;20052;-50
2021/03/19 18:34:17;;;;;;;8.30;2.78;;;6.60;99.90;;;;;;10374604;28;20043;-50
2021/03/19 18:39:38;;;;;;;2.05;0.52;;;6.40;99.90;;;;;;10365213;28;20099;-50
2021/03/19 18:44:59;;;;;;;5.10;1.65;;;6.40;99.90;;;;;;10375848;28;20129;-50
2021/03/19 18:50:21;;;;;;;2.08;0.57;;;6.30;99.90;;;;;;10365807;28;20128;-50
2021/03/19 18:55:45;;;;;;;2.53;0.82;;;6.40;99.90;;;;;;10367055;28;20428;-50
2021/03/19 19:01:06;;;;;;;2.05;0.73;;;6.30;99.90;;;;;;10366218;28;20487;-50
2021/03/19 19:06:27;;;;;;;3.65;1.48;;;6.30;99.90;;;;;;10376447;28;20045;-50
2021/03/19 19:11:48;;;;;;;8.18;0.75;;;6.30;99.90;;;;;;10363736;28;20314;-50
2021/03/19 19:17:09;;;;;;;30.33;7.80;;;6.10;99.90;;;;;;10359840;28;20029;-50
2021/03/19 19:22:30;;;;;;;18.63;7.22;;;6.00;99.90;;;;;;10366575;28;20040;-50
2021/03/19 19:27:51;;;;;;;32.63;5.18;;;5.90;99.90;;;;;;10375146;28;20037;-50
2021/03/19 19:33:12;;;;;;;12.32;4.15;;;5.90;99.90;;;;;;10370636;28;20065;-50
2021/03/19 19:38:34;;;;;;;1.80;0.80;;;5.90;99.90;;;;;;10364596;28;20049;-50
2021/03/19 19:43:56;;;;;;;2.63;0.80;;;5.90;99.90;;;;;;10363599;28;20037;-50
2021/03/19 19:49:17;;;;;;;4.55;0.80;;;5.80;99.90;;;;;;10370197;28;20049;-50
2021/03/19 19:54:38;;;;;;;1.05;0.60;;;5.70;99.90;;;;;;10370556;28;20041;-50
2021/03/19 20:00:00;;;;;;;1.88;0.60;;;5.80;99.90;;;;;;10380722;28;20550;-50
2021/03/19 20:05:22;;;;;;;2.20;0.82;;;5.80;99.90;;;;;;10367263;28;20045;-50
2021/03/19 20:10:43;;;;;;;1.38;0.47;;;5.70;99.90;;;;;;10372575;28;20556;-50
2021/03/19 20:16:05;;;;;;;0.82;0.35;;;5.60;99.90;;;;;;10364656;28;20709;-50
2021/03/19 20:21:36;;;;;;;2.63;0.77;;;5.50;99.90;;;;;;10369368;28;20103;-50
2021/03/19 20:26:57;;;;;;;1.75;0.77;;;5.50;99.90;;;;;;10384099;28;20053;-50
2021/03/19 20:32:18;;;;;;;2.92;0.75;;;5.60;99.90;;;;;;10372775;28;20123;-50
2021/03/19 20:37:39;;;;;;;3.35;0.75;;;5.60;99.90;;;;;;10372903;28;20099;-50
2021/03/19 20:43:00;;;;;;;2.75;0.73;;;5.70;99.90;;;;;;10369566;28;21802;-50
2021/03/19 20:48:27;;;;;;;4.68;1.30;;;5.80;99.90;;;;;;10373279;28;20096;-50
2021/03/19 20:53:50;;;;;;;2.00;1.10;;;5.80;99.90;;;;;;10373840;28;20530;-50
2021/03/19 20:59:15;;;;;;;2.50;1.23;;;5.80;99.90;;;;;;10370551;28;20033;-50
2021/03/19 21:04:36;;;;;;;2.95;1.30;;;5.70;99.90;;;;;;10361499;28;20080;-50
2021/03/19 21:09:58;;;;;;;2.95;1.40;;;5.70;99.90;;;;;;10364475;28;21439;-50
2021/03/19 21:15:19;;;;;;;2.83;1.20;;;5.60;99.90;;;;;;10362680;28;20045;-50
2021/03/19 21:20:40;;;;;;;2.33;1.20;;;5.50;99.90;;;;;;10371063;28;20521;-50
2021/03/19 21:26:02;;;;;;;3.95;1.70;;;5.60;99.90;;;;;;10374787;28;20590;-50
2021/03/19 21:31:23;;;;;;;3.05;1.52;;;5.60;99.90;;;;;;10381708;28;20047;-50
2021/03/19 21:36:44;;;;;;;3.92;1.67;;;5.40;99.90;;;;;;10374909;28;20033;-50
2021/03/19 21:42:05;;;;;;;3.90;1.50;;;5.40;99.90;;;;;;10378724;28;20040;-50
2021/03/19 21:47:26;;;;;;;3.13;0.82;;;5.40;99.90;;;;;;10367085;28;20064;-50
2021/03/19 21:52:47;;;;;;;3.08;1.27;;;5.30;99.90;;;;;;10375921;28;20103;-50
2021/03/19 21:58:10;;;;;;;4.85;1.63;;;5.40;99.90;;;;;;10374406;28;20029;-50
2021/03/19 22:03:31;;;;;;;2.30;1.05;;;5.40;99.90;;;;;;10378248;28;20056;-50
2021/03/19 22:08:53;;;;;;;2.75;1.42;;;5.30;99.90;;;;;;10375881;28;20352;-50
2021/03/19 22:14:14;;;;;;;2.70;1.10;;;5.20;99.90;;;;;;10376401;28;20065;-50
2021/03/19 22:19:35;;;;;;;3.13;1.27;;;5.20;99.90;;;;;;10374927;28;20037;-50
2021/03/19 22:24:56;;;;;;;4.60;1.08;;;5.20;99.90;;;;;;10380868;28;20041;-50
2021/03/19 22:30:22;;;;;;;3.88;1.38;;;5.00;99.90;;;;;;10375717;28;20199;-50
2021/03/19 22:35:44;;;;;;;4.25;1.40;;;5.00;99.90;;;;;;10376308;28;20519;-50
2021/03/19 22:41:05;;;;;;;3.28;1.75;;;5.10;99.90;;;;;;10378118;28;20037;-50
2021/03/19 22:46:26;;;;;;;3.65;1.52;;;4.90;99.90;;;;;;10377165;28;20135;-50
2021/03/19 22:51:47;;;;;;;8.00;2.72;;;4.90;99.90;;;;;;10362308;28;20528;-50
2021/03/19 22:57:35;;;;;;;4.20;1.35;;;4.90;99.90;;;;;;10371039;28;20103;-50
2021/03/19 23:02:57;;;;;;;9.10;2.05;;;4.80;99.90;;;;;;10389864;28;20076;-50
2021/03/19 23:08:20;;;;;;;4.30;1.60;;;4.70;99.90;;;;;;10401543;28;20272;-50
2021/03/19 23:13:44;;;;;;;3.42;1.63;;;4.60;99.90;;;;;;10416581;28;20038;-50
2021/03/19 23:19:10;;;;;;;3.03;1.15;;;4.60;99.90;;;;;;10412078;28;20563;-50
2021/03/19 23:24:31;;;;;;;2.53;1.13;;;4.60;99.90;;;;;;10413022;28;20065;-50
2021/03/19 23:29:52;;;;;;;3.72;1.15;;;4.50;99.90;;;;;;10415062;28;20549;-50
2021/03/19 23:35:14;;;;;;;3.67;1.45;;;4.40;99.90;;;;;;10419382;28;20095;-50
2021/03/19 23:40:48;;;;;;;3.63;2.15;;;4.30;99.90;;;;;;10415120;28;20566;-50
2021/03/19 23:46:12;;;;;;;3.88;1.25;;;4.30;99.90;;;;;;10406974;28;20036;-50
2021/03/19 23:51:34;;;;;;;3.88;1.08;;;4.30;99.90;;;;;;10411084;28;20096;-50
2021/03/19 23:56:55;;;;;;;2.22;1.20;;;4.10;99.90;;;;;;10410017;28;20475;-50
